CST,Max TemperatureF,Mean TemperatureF,Min TemperatureF,Max Dew PointF,MeanDew PointF,Min DewpointF,Max Humidity, Mean Humidity, Min Humidity, Max Sea Level PressureIn, Mean Sea Level PressureIn, Min Sea Level PressureIn, Max VisibilityMiles, Mean VisibilityMiles, Min VisibilityMiles, Max Wind SpeedMPH, Mean Wind SpeedMPH, Max Gust SpeedMPH,PrecipitationIn, CloudCover, Events, WindDirDegrees
2013-11-1,72,60,47,64,52,39,100,66,31,29.87,29.81,29.74,10,10,10,15,5,21,0.00,2,,267
2013-11-2,67,55,42,47,41,34,93,62,31,30.15,29.98,29.86,10,10,9,17,5,22,0.00,2,,301
2013-11-3,64,50,36,41,34,27,100,63,25,30.32,30.24,30.16,10,9,3,14,4,18,0.00,0,Fog,42
2013-11-4,68,54,39,41,37,34,89,59,29,30.38,30.32,30.27,10,10,10,21,10,26,0.00,4,,123
2013-11-5,64,58,52,42,38,35,61,50,39,30.40,30.32,30.25,10,10,10,21,12,25,0.00,5,,124
2013-11-6,77,64,50,63,55,40,93,72,51,30.24,30.14,30.06,10,8,2,20,9,23,0.32,6,Rain,163
2013-11-7,62,49,35,61,43,30,100,69,38,30.33,30.21,30.05,10,8,2,26,9,36,0.10,5,Rain,338
2013-11-8,61,45,29,37,30,24,92,59,25,30.40,30.32,30.26,10,10,10,16,3,20,0.00,3,,39
2013-11-9,61,50,39,45,38,34,86,61,36,30.33,30.28,30.23,10,10,10,9,3,13,T,6,Rain,145
2013-11-10,71,56,41,45,39,30,93,62,31,30.33,30.29,30.25,10,10,8,13,4,16,0.00,1,Fog,21
2013-11-11,70,52,33,39,28,11,89,52,15,30.31,30.24,30.17,10,10,10,8,1,10,0.00,1,,194
2013-11-12,51,42,32,43,27,14,82,59,36,30.58,30.41,30.18,10,10,8,25,12,33,T,3,,4
2013-11-13,50,38,26,22,16,11,69,45,21,30.67,30.56,30.47,10,10,10,16,5,20,0.00,0,,23
2013-11-14,59,41,23,28,20,13,88,52,16,30.48,30.36,30.22,10,10,10,10,5,16,0.00,1,,135
2013-11-15,54,47,40,52,44,26,100,73,46,30.22,30.16,30.09,10,6,1,14,6,16,0.24,7,Fog-Rain,113
2013-11-16,67,60,52,58,55,51,100,87,73,30.14,30.09,30.02,10,7,2,17,10,23,0.00,8,,130
2013-11-17,71,66,60,68,63,55,100,89,78,30.01,29.92,29.83,10,8,2,28,10,33,0.29,8,Rain,177
2013-11-18,67,57,47,55,40,31,93,62,31,30.18,30.09,29.98,10,10,10,17,7,22,0.01,2,,344
2013-11-19,55,47,38,30,28,25,64,48,32,30.24,30.18,30.15,10,10,10,20,10,23,0.00,4,,21
2013-11-20,62,48,33,38,32,27,82,58,33,30.25,30.21,30.15,10,10,10,23,10,31,0.00,1,,113
2013-11-21,63,55,47,52,47,38,76,65,54,30.31,30.26,30.22,10,10,10,17,9,23,T,7,Rain,127
2013-11-22,64,57,50,61,54,46,97,86,75,30.29,30.24,30.20,10,7,2,17,7,23,0.05,8,Rain,47
2013-11-23,52,41,30,46,35,19,93,69,44,30.46,30.35,30.26,10,9,5,22,13,31,T,6,Rain,7
2013-11-24,42,33,24,18,13,8,68,48,27,30.60,30.50,30.44,10,10,10,24,12,32,0.00,2,,29
2013-11-25,43,36,28,36,26,13,92,61,29,30.43,30.28,30.13,10,9,5,17,8,21,0.53,7,Rain,106
2013-11-26,47,42,36,45,39,28,100,88,76,30.12,29.94,29.81,10,5,2,22,11,29,1.54,8,Rain-Snow,29
2013-11-27,37,29,20,28,19,14,75,58,40,30.38,30.18,29.94,10,10,10,22,12,29,0.00,4,,334
2013-11-28,46,32,17,21,16,12,84,56,28,30.51,30.46,30.38,10,10,10,7,2,8,0.00,1,,4
2013-11-29,56,39,22,27,23,20,88,58,27,30.58,30.51,30.47,10,10,10,7,2,12,0.00,0,,32
2013-11-30,57,44,30,31,27,25,85,59,32,30.51,30.40,30.28,10,10,10,16,6,21,0.00,4,,131